• Join FlightAware (Why Join?)
  • Login
  • US Flag 
05:20PM EDT


 

Airport Tracker/Info


-or-


 

Live Flight TrackerFlight Track Log ✈ GGN7283 ✈ 09-Aug-2013 ✈ KALB - CYYZ

Flight Track Log - Related Links

Times and Time Zones

All times are in EDT time to prevent confusion due to time zone crossing. See the GGN7283 flight status page for this flight to view local times or setup timezone preferences in your user account.

Time Position Orientation Groundspeed Altitude Reporting Facility
EDT Latitude Longitude Course Direction KTS MPH feet Rate Location/Type
05:26PM 42.7653 -73.8061 307° West 146 168 1,000  Level Boston Center
05:27PM 42.8000 -73.8692 307° West 186 214 2,300 840 Climbing Boston Center
05:28PM 42.8136 -73.9486 283° West 214 246 3,100 840 Climbing Boston Center
05:29PM 42.8292 -74.0283 285° West 216 249 4,100 840 Climbing Boston Center
05:30PM 42.8425 -74.1136 282° West 219 252 5,000 660 Climbing Boston Center
05:31PM 42.8558 -74.1961 282° West 219 252 5,600 900 Climbing Boston Center
05:32PM 42.8669 -74.2728 281° West 219 252 6,900 1,080 Climbing Boston Center
05:33PM 42.8783 -74.3497 281° West 219 252 7,800 960 Climbing Boston Center
05:34PM 42.8894 -74.4294 281° West 219 252 8,900 1,080 Climbing Boston Center
05:35PM 42.9050 -74.5008 287° West 214 246 10,000 1,260 Climbing Boston Center
05:36PM 42.9158 -74.5778 281° West 209 241 11,400 1,140 Climbing Boston Center
05:37PM 42.9272 -74.6492 282° West 204 235 12,400 1,080 Climbing Boston Center
05:38PM 42.9403 -74.7233 284° West 204 235 13,700 1,080 Climbing Boston Center
05:39PM 42.9514 -74.7833 284° West 199 229 14,600 720 Climbing Boston Center
05:40PM 42.9625 -74.8603 281° West 199 229 15,200 660 Climbing Boston Center
05:41PM 42.9714 -74.9231 281° West 199 229 16,000 960 Climbing Boston Center
05:42PM 42.9822 -75.0086 280° West 199 229 17,200 900 Climbing Boston Center
05:43PM 42.9825 -75.0769 270° West 199 229 17,900 720 Climbing Boston Center
05:44PM 42.9831 -75.1478 271° West 199 229 18,700 780 Climbing Boston Center
05:46PM 42.9831 -75.2331 270° West 199 229 19,600 540 Climbing Boston Center
05:47PM 42.9814 -75.3039 268° West 199 229 20,000 240 Climbing Boston Center
05:48PM 42.9794 -75.3806 268° West 199 229 20,100  Climbing Boston Center
05:49PM 42.9814 -75.4572 272° West 199 229 20,100  Level Boston Center
05:50PM 42.9817 -75.5308 270° West 199 229 20,100  Level Boston Center
05:51PM 42.9817 -75.6075 270° West 199 229 20,100  Level Boston Center
05:52PM 42.9817 -75.6814 270° West 199 229 20,100  Level Boston Center
05:53PM 42.9814 -75.7581 270° West 199 229 20,100 -180 Level Boston Center
05:54PM 42.9814 -75.8319 270° West 199 229 19,800 -600 Descending Boston Center
05:55PM 42.9789 -75.9142 268° West 204 235 18,900 -960 Descending Boston Center
05:56PM 42.9783 -75.9964 269° West 214 246 18,000 -1,020 Descending Boston Center
05:57PM 42.9781 -76.1614 270° West 227 261 16,100 -720 Descending Cleveland Center
05:58PM 42.9772 -76.2494 269° West 233 268 16,000 -60 Descending Cleveland Center
05:59PM 42.9742 -76.3347 267° West 233 268 16,000  Level Cleveland Center
06:00PM 42.9750 -76.4172 271° West 233 268 16,100 60 Climbing Cleveland Center
06:01PM 42.9717 -76.4997 267° West 228 262 16,200  Climbing Cleveland Center
06:02PM 42.9725 -76.5819 271° West 228 262 16,100 -60 Descending Cleveland Center
06:03PM 42.9711 -76.6644 269° West 222 255 16,100  Level Cleveland Center
06:04PM 42.9697 -76.7467 269° West 217 250 16,100  Level Cleveland Center
06:05PM 42.9683 -76.8292 269° West 217 250 16,100  Level Cleveland Center
06:06PM 42.9686 -76.9086 270° West 217 250 16,100 -60 Level Cleveland Center
06:07PM 42.9650 -76.9911 267° West 217 250 16,000 -60 Descending Cleveland Center
06:08PM 42.9656 -77.0733 271° West 217 250 16,000  Level Cleveland Center
06:09PM 42.9636 -77.1531 268° West 217 250 16,100  Climbing Cleveland Center
06:10PM 42.9619 -77.2381 268° West 217 250 16,100  Level Cleveland Center
06:11PM 42.9603 -77.3178 268° West 217 250 16,100  Level Cleveland Center
06:12PM 42.9583 -77.4000 268° West 217 250 16,100  Level Cleveland Center
06:13PM 42.9583 -77.4825 270° West 217 250 16,100  Level Cleveland Center
06:14PM 42.9544 -77.5619 266° West 217 250 16,100 -240 Level Cleveland Center
06:15PM 42.9544 -77.6442 270° West 217 250 15,700 -600 Descending Cleveland Center
06:16PM 42.9544 -77.7322 270° West 222 255 15,000 -600 Descending Cleveland Center
06:17PM 42.9503 -77.8233 266° West 233 268 14,500 -660 Descending Cleveland Center
06:18PM 42.9714 -77.9131 288° West 238 274 13,700 -660 Descending Cleveland Center
06:19PM 42.9942 -77.9972 290° West 243 280 13,200 -660 Descending Cleveland Center
06:20PM 43.0147 -78.0789 289° West 238 274 12,500 -600 Descending Cleveland Center
06:21PM 43.0331 -78.1606 287° West 233 268 12,100 -240 Descending Cleveland Center
06:22PM 43.0492 -78.2394 286° West 228 262 12,100  Level Cleveland Center
06:23PM 43.0672 -78.3125 289° West 217 250 12,100  Level Cleveland Center
06:24PM 43.0856 -78.3886 288° West 212 244 12,100  Level Cleveland Center
06:25PM 43.1036 -78.4619 289° West 207 238 12,100  Level Cleveland Center
06:26PM 43.1194 -78.5353 287° West 200 230 12,100  Level Cleveland Center
06:27PM 43.1353 -78.6089 286° West 200 230 12,100  Level Cleveland Center
06:28PM 43.1511 -78.6767 288° West 200 230 12,100  Level Cleveland Center
06:29PM 43.1689 -78.7531 288° West 200 230 12,100  Level Cleveland Center
06:30PM 43.1806 -78.8267 282° West 200 230 12,100  Level Cleveland Center
06:31PM 43.2025 -78.9000 292° West 200 230 12,100  Level Cleveland Center
06:32PM 43.2200 -78.9736 288° West 205 236 12,100 -240 Level Cleveland Center
06:33PM 43.2378 -79.0472 288° West 205 236 11,700 -660 Descending Cleveland Center
06:34PM 43.2556 -79.1294 287° West 211 243 10,800 -960 Descending Cleveland Center
06:35PM 43.2775 -79.2317 286° West 237 273 9,800 -780 Descending Cleveland Center
06:37PM 43.2833 -79.3167 275° West 240 276 9,100 -360 Descending Toronto Center
06:38PM 43.3333 -79.3500 334° Northwest 230 265 9,100  Level Toronto Center
06:39PM 43.4000 -79.4000 331° Northwest 240 276 9,100  Level Toronto Center
06:40PM 43.4500 -79.4667 316° Northwest 230 265 9,100 -60 Level Toronto Center
06:41PM 43.5000 -79.5000 334° Northwest 240 276 9,000 -480 Descending Toronto Center
06:42PM 43.5667 -79.5167 350° North 250 288 8,200 -1,020 Descending Toronto Center
06:43PM 43.6333 -79.4667 28° Northeast 250 288 7,000 -1,380 Descending Toronto Center
06:44PM 43.6667 -79.4000 55° Northeast 250 288 5,500 -1,140 Descending Toronto Center
06:45PM 43.7167 -79.3333 44° Northeast 230 265 4,800 -840 Descending Toronto Center
06:46PM 43.7667 -79.3167 14° North 200 230 3,900 -720 Descending Toronto Center
06:47PM 43.8000 -79.3333 340° North 180 207 3,400 -540 Descending Toronto Center
06:48PM 43.7833 -79.4000 251° West 180 207 2,900 -300 Descending Toronto Center
06:49PM 43.7500 -79.4500 227° Southwest 170 196 2,900 -420 Level Toronto Center
06:50PM 43.7167 -79.5000 227° Southwest 170 196 2,100 -720 Descending Toronto Center
06:51PM 43.7000 -79.5333 235° Southwest 140 161 1,500 -600 Descending Toronto Center
06:52PM 43.6667 -79.5667 216° Southwest 120 138 900 -480 Descending Toronto Center
06:53PM 43.6500 -79.5833 216° Southwest 80 92 600 -300 Descending Toronto Center